sensor_id;sensor_type;location;lat;lon;timestamp;P1;durP1;ratioP1;P2;durP2;ratioP2
3463;SDS011;3551;41.578;24.706;2022-08-19T00:01:12;10.13;;;8.93;;
3463;SDS011;3551;41.578;24.706;2022-08-19T00:03:39;11.97;;;8.50;;
3463;SDS011;3551;41.578;24.706;2022-08-19T00:06:07;12.50;;;9.30;;
3463;SDS011;3551;41.578;24.706;2022-08-19T00:08:35;11.37;;;8.70;;
3463;SDS011;3551;41.578;24.706;2022-08-19T00:11:02;15.43;;;8.67;;
3463;SDS011;3551;41.578;24.706;2022-08-19T00:13:29;9.90;;;8.10;;
3463;SDS011;3551;41.578;24.706;2022-08-19T00:15:56;12.07;;;8.47;;
3463;SDS011;3551;41.578;24.706;2022-08-19T00:18:26;26.83;;;8.87;;
3463;SDS011;3551;41.578;24.706;2022-08-19T00:20:53;13.90;;;8.47;;
3463;SDS011;3551;41.578;24.706;2022-08-19T00:23:21;16.30;;;8.57;;
3463;SDS011;3551;41.578;24.706;2022-08-19T00:25:49;12.27;;;7.80;;
3463;SDS011;3551;41.578;24.706;2022-08-19T00:28:17;15.17;;;8.90;;
3463;SDS011;3551;41.578;24.706;2022-08-19T00:30:45;12.07;;;8.73;;
3463;SDS011;3551;41.578;24.706;2022-08-19T00:33:12;13.77;;;9.33;;
3463;SDS011;3551;41.578;24.706;2022-08-19T00:35:41;11.67;;;8.53;;
3463;SDS011;3551;41.578;24.706;2022-08-19T00:38:08;11.90;;;8.07;;
3463;SDS011;3551;41.578;24.706;2022-08-19T00:40:37;9.50;;;8.10;;
3463;SDS011;3551;41.578;24.706;2022-08-19T00:43:07;13.33;;;8.00;;
3463;SDS011;3551;41.578;24.706;2022-08-19T00:45:35;9.77;;;8.13;;
3463;SDS011;3551;41.578;24.706;2022-08-19T00:48:02;10.80;;;8.47;;
3463;SDS011;3551;41.578;24.706;2022-08-19T00:50:30;12.63;;;8.60;;
3463;SDS011;3551;41.578;24.706;2022-08-19T00:52:58;13.70;;;8.20;;
3463;SDS011;3551;41.578;24.706;2022-08-19T00:55:26;10.50;;;8.50;;
3463;SDS011;3551;41.578;24.706;2022-08-19T00:57:58;15.83;;;8.80;;
3463;SDS011;3551;41.578;24.706;2022-08-19T01:00:30;11.23;;;7.90;;
3463;SDS011;3551;41.578;24.706;2022-08-19T01:03:01;11.83;;;9.40;;
3463;SDS011;3551;41.578;24.706;2022-08-19T01:05:29;12.77;;;9.00;;
3463;SDS011;3551;41.578;24.706;2022-08-19T01:07:56;11.70;;;8.50;;
3463;SDS011;3551;41.578;24.706;2022-08-19T01:10:27;12.07;;;8.50;;
3463;SDS011;3551;41.578;24.706;2022-08-19T01:13:00;10.27;;;7.93;;
3463;SDS011;3551;41.578;24.706;2022-08-19T01:15:29;11.43;;;8.53;;
3463;SDS011;3551;41.578;24.706;2022-08-19T01:17:58;11.93;;;8.17;;
3463;SDS011;3551;41.578;24.706;2022-08-19T01:20:30;10.17;;;7.90;;
3463;SDS011;3551;41.578;24.706;2022-08-19T01:23:01;14.00;;;8.10;;
3463;SDS011;3551;41.578;24.706;2022-08-19T01:25:29;13.33;;;8.00;;
3463;SDS011;3551;41.578;24.706;2022-08-19T01:27:58;15.00;;;7.70;;
3463;SDS011;3551;41.578;24.706;2022-08-19T01:30:27;15.03;;;8.57;;
3463;SDS011;3551;41.578;24.706;2022-08-19T01:32:55;15.53;;;8.13;;
3463;SDS011;3551;41.578;24.706;2022-08-19T01:35:24;10.30;;;7.83;;
3463;SDS011;3551;41.578;24.706;2022-08-19T01:37:55;9.90;;;8.20;;
3463;SDS011;3551;41.578;24.706;2022-08-19T01:40:26;12.27;;;8.23;;
3463;SDS011;3551;41.578;24.706;2022-08-19T01:42:55;11.37;;;7.73;;
3463;SDS011;3551;41.578;24.706;2022-08-19T01:45:22;14.90;;;7.87;;
3463;SDS011;3551;41.578;24.706;2022-08-19T01:47:52;16.87;;;8.67;;
3463;SDS011;3551;41.578;24.706;2022-08-19T01:50:20;12.80;;;7.73;;
3463;SDS011;3551;41.578;24.706;2022-08-19T01:52:47;14.80;;;7.57;;
3463;SDS011;3551;41.578;24.706;2022-08-19T01:55:15;11.83;;;7.47;;
3463;SDS011;3551;41.578;24.706;2022-08-19T01:57:46;8.60;;;7.50;;
3463;SDS011;3551;41.578;24.706;2022-08-19T02:00:16;9.47;;;7.10;;
3463;SDS011;3551;41.578;24.706;2022-08-19T02:02:45;9.10;;;7.60;;
3463;SDS011;3551;41.578;24.706;2022-08-19T02:05:12;8.63;;;7.43;;
3463;SDS011;3551;41.578;24.706;2022-08-19T02:07:43;9.67;;;7.57;;
3463;SDS011;3551;41.578;24.706;2022-08-19T02:10:12;16.60;;;8.77;;
3463;SDS011;3551;41.578;24.706;2022-08-19T02:12:41;14.20;;;7.97;;
3463;SDS011;3551;41.578;24.706;2022-08-19T02:15:10;13.27;;;8.67;;
3463;SDS011;3551;41.578;24.706;2022-08-19T02:17:37;17.97;;;8.43;;
3463;SDS011;3551;41.578;24.706;2022-08-19T02:20:05;9.13;;;7.43;;
3463;SDS011;3551;41.578;24.706;2022-08-19T02:22:33;10.43;;;8.00;;
3463;SDS011;3551;41.578;24.706;2022-08-19T02:25:01;13.13;;;8.27;;
3463;SDS011;3551;41.578;24.706;2022-08-19T02:27:30;10.87;;;7.73;;
3463;SDS011;3551;41.578;24.706;2022-08-19T02:29:58;12.87;;;8.90;;
3463;SDS011;3551;41.578;24.706;2022-08-19T02:32:27;14.30;;;8.00;;
3463;SDS011;3551;41.578;24.706;2022-08-19T02:34:55;11.33;;;8.77;;
3463;SDS011;3551;41.578;24.706;2022-08-19T02:37:22;11.53;;;8.90;;
3463;SDS011;3551;41.578;24.706;2022-08-19T02:40:07;10.70;;;7.87;;
3463;SDS011;3551;41.578;24.706;2022-08-19T02:42:34;12.30;;;8.23;;
3463;SDS011;3551;41.578;24.706;2022-08-19T02:45:01;14.57;;;7.60;;
3463;SDS011;3551;41.578;24.706;2022-08-19T02:47:37;12.53;;;7.20;;
3463;SDS011;3551;41.578;24.706;2022-08-19T02:50:05;11.30;;;8.00;;
3463;SDS011;3551;41.578;24.706;2022-08-19T02:52:33;10.23;;;6.93;;
3463;SDS011;3551;41.578;24.706;2022-08-19T02:55:01;22.03;;;8.10;;
3463;SDS011;3551;41.578;24.706;2022-08-19T02:57:29;9.93;;;7.47;;
3463;SDS011;3551;41.578;24.706;2022-08-19T02:59:57;15.63;;;7.80;;
3463;SDS011;3551;41.578;24.706;2022-08-19T03:02:26;9.30;;;7.13;;
3463;SDS011;3551;41.578;24.706;2022-08-19T03:04:55;13.70;;;8.70;;
3463;SDS011;3551;41.578;24.706;2022-08-19T03:07:22;13.07;;;8.27;;
3463;SDS011;3551;41.578;24.706;2022-08-19T03:09:49;9.17;;;7.00;;
3463;SDS011;3551;41.578;24.706;2022-08-19T03:12:16;11.00;;;7.83;;
3463;SDS011;3551;41.578;24.706;2022-08-19T03:14:43;15.73;;;8.20;;
3463;SDS011;3551;41.578;24.706;2022-08-19T03:17:10;12.60;;;8.40;;
3463;SDS011;3551;41.578;24.706;2022-08-19T03:19:37;11.33;;;8.00;;
3463;SDS011;3551;41.578;24.706;2022-08-19T03:22:06;11.27;;;8.37;;
3463;SDS011;3551;41.578;24.706;2022-08-19T03:24:33;12.40;;;7.90;;
3463;SDS011;3551;41.578;24.706;2022-08-19T03:27:00;13.80;;;8.70;;
3463;SDS011;3551;41.578;24.706;2022-08-19T03:29:30;9.50;;;8.10;;
3463;SDS011;3551;41.578;24.706;2022-08-19T03:31:58;12.83;;;8.17;;
3463;SDS011;3551;41.578;24.706;2022-08-19T03:34:29;16.50;;;8.33;;
3463;SDS011;3551;41.578;24.706;2022-08-19T03:36:57;11.93;;;8.30;;
3463;SDS011;3551;41.578;24.706;2022-08-19T03:39:27;15.00;;;7.80;;
3463;SDS011;3551;41.578;24.706;2022-08-19T03:41:55;11.07;;;7.70;;
3463;SDS011;3551;41.578;24.706;2022-08-19T03:44:25;11.13;;;8.07;;
3463;SDS011;3551;41.578;24.706;2022-08-19T03:46:53;10.83;;;7.50;;
3463;SDS011;3551;41.578;24.706;2022-08-19T03:49:23;16.10;;;8.37;;
3463;SDS011;3551;41.578;24.706;2022-08-19T03:51:52;12.43;;;7.93;;
3463;SDS011;3551;41.578;24.706;2022-08-19T03:54:21;13.90;;;9.10;;
3463;SDS011;3551;41.578;24.706;2022-08-19T03:56:51;15.53;;;9.20;;
3463;SDS011;3551;41.578;24.706;2022-08-19T03:59:21;14.33;;;8.37;;
3463;SDS011;3551;41.578;24.706;2022-08-19T04:01:51;11.17;;;7.93;;
3463;SDS011;3551;41.578;24.706;2022-08-19T04:04:19;13.73;;;7.90;;
3463;SDS011;3551;41.578;24.706;2022-08-19T04:06:46;13.10;;;8.87;;
3463;SDS011;3551;41.578;24.706;2022-08-19T04:09:14;14.00;;;8.53;;
3463;SDS011;3551;41.578;24.706;2022-08-19T04:11:42;15.43;;;9.87;;
3463;SDS011;3551;41.578;24.706;2022-08-19T04:14:13;21.90;;;9.90;;
3463;SDS011;3551;41.578;24.706;2022-08-19T04:16:42;18.37;;;9.37;;
3463;SDS011;3551;41.578;24.706;2022-08-19T04:19:11;15.57;;;8.80;;
3463;SDS011;3551;41.578;24.706;2022-08-19T04:21:39;24.70;;;10.10;;
3463;SDS011;3551;41.578;24.706;2022-08-19T04:24:07;16.27;;;11.37;;
3463;SDS011;3551;41.578;24.706;2022-08-19T04:26:35;25.80;;;11.60;;
3463;SDS011;3551;41.578;24.706;2022-08-19T04:29:05;22.87;;;10.47;;
3463;SDS011;3551;41.578;24.706;2022-08-19T04:31:35;23.23;;;10.80;;
3463;SDS011;3551;41.578;24.706;2022-08-19T04:34:04;17.73;;;9.60;;
3463;SDS011;3551;41.578;24.706;2022-08-19T04:36:34;16.40;;;9.50;;
3463;SDS011;3551;41.578;24.706;2022-08-19T04:39:04;14.33;;;9.47;;
3463;SDS011;3551;41.578;24.706;2022-08-19T04:41:33;21.10;;;9.10;;
3463;SDS011;3551;41.578;24.706;2022-08-19T04:44:18;11.67;;;8.70;;
3463;SDS011;3551;41.578;24.706;2022-08-19T04:46:47;20.37;;;9.43;;
3463;SDS011;3551;41.578;24.706;2022-08-19T04:49:16;18.50;;;10.07;;
3463;SDS011;3551;41.578;24.706;2022-08-19T04:51:45;14.33;;;10.47;;
3463;SDS011;3551;41.578;24.706;2022-08-19T04:54:14;18.23;;;9.53;;
3463;SDS011;3551;41.578;24.706;2022-08-19T04:56:41;18.17;;;10.67;;
3463;SDS011;3551;41.578;24.706;2022-08-19T04:59:09;20.47;;;9.20;;
3463;SDS011;3551;41.578;24.706;2022-08-19T05:01:37;22.10;;;11.27;;
3463;SDS011;3551;41.578;24.706;2022-08-19T05:04:05;15.47;;;8.97;;
3463;SDS011;3551;41.578;24.706;2022-08-19T05:06:33;20.50;;;10.17;;
3463;SDS011;3551;41.578;24.706;2022-08-19T05:09:01;21.87;;;9.63;;
3463;SDS011;3551;41.578;24.706;2022-08-19T05:11:31;28.70;;;12.00;;
3463;SDS011;3551;41.578;24.706;2022-08-19T05:14:00;15.00;;;10.07;;
3463;SDS011;3551;41.578;24.706;2022-08-19T05:16:27;16.20;;;10.80;;
3463;SDS011;3551;41.578;24.706;2022-08-19T05:18:54;17.70;;;10.70;;
3463;SDS011;3551;41.578;24.706;2022-08-19T05:21:42;19.80;;;9.63;;
3463;SDS011;3551;41.578;24.706;2022-08-19T05:24:27;21.30;;;10.30;;
3463;SDS011;3551;41.578;24.706;2022-08-19T05:26:55;14.83;;;9.63;;
3463;SDS011;3551;41.578;24.706;2022-08-19T05:29:23;17.67;;;10.73;;
3463;SDS011;3551;41.578;24.706;2022-08-19T05:31:54;17.90;;;10.87;;
3463;SDS011;3551;41.578;24.706;2022-08-19T05:34:35;25.77;;;11.93;;
3463;SDS011;3551;41.578;24.706;2022-08-19T05:37:05;17.33;;;10.23;;
3463;SDS011;3551;41.578;24.706;2022-08-19T05:39:33;19.77;;;12.10;;
3463;SDS011;3551;41.578;24.706;2022-08-19T05:42:02;17.33;;;11.50;;
3463;SDS011;3551;41.578;24.706;2022-08-19T05:44:33;18.57;;;10.83;;
3463;SDS011;3551;41.578;24.706;2022-08-19T05:47:03;25.50;;;9.53;;
3463;SDS011;3551;41.578;24.706;2022-08-19T05:49:32;23.70;;;9.20;;
3463;SDS011;3551;41.578;24.706;2022-08-19T05:52:01;17.13;;;10.10;;
3463;SDS011;3551;41.578;24.706;2022-08-19T05:54:33;15.23;;;8.90;;
3463;SDS011;3551;41.578;24.706;2022-08-19T05:57:01;25.23;;;10.20;;
3463;SDS011;3551;41.578;24.706;2022-08-19T05:59:28;15.43;;;8.53;;
3463;SDS011;3551;41.578;24.706;2022-08-19T06:01:55;19.13;;;9.10;;
3463;SDS011;3551;41.578;24.706;2022-08-19T06:04:23;15.53;;;8.83;;
3463;SDS011;3551;41.578;24.706;2022-08-19T06:06:51;15.07;;;9.90;;
3463;SDS011;3551;41.578;24.706;2022-08-19T06:09:19;17.47;;;9.33;;
3463;SDS011;3551;41.578;24.706;2022-08-19T06:11:49;14.13;;;8.70;;
3463;SDS011;3551;41.578;24.706;2022-08-19T06:14:19;12.83;;;8.57;;
3463;SDS011;3551;41.578;24.706;2022-08-19T06:16:48;16.23;;;8.33;;
3463;SDS011;3551;41.578;24.706;2022-08-19T06:19:18;15.67;;;8.80;;
3463;SDS011;3551;41.578;24.706;2022-08-19T06:21:47;12.30;;;8.13;;
3463;SDS011;3551;41.578;24.706;2022-08-19T06:24:16;16.43;;;8.40;;
3463;SDS011;3551;41.578;24.706;2022-08-19T06:26:45;18.30;;;8.50;;
3463;SDS011;3551;41.578;24.706;2022-08-19T06:29:16;16.93;;;8.60;;
3463;SDS011;3551;41.578;24.706;2022-08-19T06:31:45;22.80;;;9.40;;
3463;SDS011;3551;41.578;24.706;2022-08-19T06:34:15;18.10;;;8.40;;
3463;SDS011;3551;41.578;24.706;2022-08-19T06:36:44;19.10;;;9.00;;
3463;SDS011;3551;41.578;24.706;2022-08-19T06:39:13;11.73;;;7.90;;
3463;SDS011;3551;41.578;24.706;2022-08-19T06:41:44;18.10;;;8.63;;
3463;SDS011;3551;41.578;24.706;2022-08-19T06:44:13;22.83;;;8.10;;
3463;SDS011;3551;41.578;24.706;2022-08-19T06:46:42;13.97;;;7.67;;
3463;SDS011;3551;41.578;24.706;2022-08-19T06:49:09;21.17;;;8.33;;
3463;SDS011;3551;41.578;24.706;2022-08-19T06:51:39;15.90;;;7.70;;
3463;SDS011;3551;41.578;24.706;2022-08-19T06:54:07;21.77;;;9.20;;
3463;SDS011;3551;41.578;24.706;2022-08-19T06:56:35;17.63;;;7.70;;
3463;SDS011;3551;41.578;24.706;2022-08-19T06:59:03;15.73;;;8.50;;
3463;SDS011;3551;41.578;24.706;2022-08-19T07:01:33;19.33;;;7.60;;
3463;SDS011;3551;41.578;24.706;2022-08-19T07:04:04;14.30;;;7.67;;
3463;SDS011;3551;41.578;24.706;2022-08-19T07:06:32;12.07;;;7.97;;
3463;SDS011;3551;41.578;24.706;2022-08-19T07:08:59;18.77;;;7.33;;
3463;SDS011;3551;41.578;24.706;2022-08-19T07:11:31;14.30;;;8.00;;
3463;SDS011;3551;41.578;24.706;2022-08-19T07:13:59;14.77;;;8.33;;
3463;SDS011;3551;41.578;24.706;2022-08-19T07:16:26;14.10;;;7.40;;
3463;SDS011;3551;41.578;24.706;2022-08-19T07:18:53;12.77;;;8.73;;
3463;SDS011;3551;41.578;24.706;2022-08-19T07:21:23;18.23;;;7.97;;
3463;SDS011;3551;41.578;24.706;2022-08-19T07:23:53;9.33;;;6.40;;
3463;SDS011;3551;41.578;24.706;2022-08-19T07:26:22;8.20;;;5.50;;
3463;SDS011;3551;41.578;24.706;2022-08-19T07:28:50;4.97;;;4.47;;
3463;SDS011;3551;41.578;24.706;2022-08-19T07:31:19;8.97;;;4.87;;
3463;SDS011;3551;41.578;24.706;2022-08-19T07:33:50;5.90;;;5.13;;
3463;SDS011;3551;41.578;24.706;2022-08-19T07:36:19;7.77;;;5.03;;
3463;SDS011;3551;41.578;24.706;2022-08-19T07:38:50;6.30;;;4.70;;
3463;SDS011;3551;41.578;24.706;2022-08-19T07:41:20;5.30;;;4.17;;
3463;SDS011;3551;41.578;24.706;2022-08-19T07:43:48;7.07;;;5.50;;
3463;SDS011;3551;41.578;24.706;2022-08-19T07:46:16;8.77;;;4.90;;
3463;SDS011;3551;41.578;24.706;2022-08-19T07:48:46;8.37;;;4.40;;
3463;SDS011;3551;41.578;24.706;2022-08-19T07:51:27;5.17;;;4.67;;
3463;SDS011;3551;41.578;24.706;2022-08-19T07:53:56;5.70;;;5.10;;
3463;SDS011;3551;41.578;24.706;2022-08-19T07:56:23;5.87;;;4.50;;
3463;SDS011;3551;41.578;24.706;2022-08-19T07:58:51;7.27;;;4.37;;
3463;SDS011;3551;41.578;24.706;2022-08-19T08:01:19;7.03;;;4.30;;
3463;SDS011;3551;41.578;24.706;2022-08-19T08:03:48;6.40;;;4.27;;
3463;SDS011;3551;41.578;24.706;2022-08-19T08:06:34;7.70;;;4.23;;
3463;SDS011;3551;41.578;24.706;2022-08-19T08:09:21;6.13;;;5.40;;
3463;SDS011;3551;41.578;24.706;2022-08-19T08:11:51;6.40;;;4.20;;
3463;SDS011;3551;41.578;24.706;2022-08-19T08:14:21;4.87;;;4.37;;
3463;SDS011;3551;41.578;24.706;2022-08-19T08:16:50;7.70;;;4.60;;
3463;SDS011;3551;41.578;24.706;2022-08-19T08:19:18;14.47;;;4.90;;
3463;SDS011;3551;41.578;24.706;2022-08-19T08:21:45;7.67;;;4.93;;
3463;SDS011;3551;41.578;24.706;2022-08-19T08:24:13;5.77;;;4.43;;
3463;SDS011;3551;41.578;24.706;2022-08-19T08:26:42;5.80;;;4.40;;
3463;SDS011;3551;41.578;24.706;2022-08-19T08:29:10;5.70;;;5.00;;
3463;SDS011;3551;41.578;24.706;2022-08-19T08:31:38;6.70;;;4.97;;
3463;SDS011;3551;41.578;24.706;2022-08-19T08:34:11;6.50;;;4.70;;
3463;SDS011;3551;41.578;24.706;2022-08-19T08:36:45;9.40;;;4.60;;
3463;SDS011;3551;41.578;24.706;2022-08-19T08:39:13;5.03;;;4.43;;
3463;SDS011;3551;41.578;24.706;2022-08-19T08:41:46;6.87;;;3.90;;
3463;SDS011;3551;41.578;24.706;2022-08-19T08:44:20;7.30;;;4.47;;
3463;SDS011;3551;41.578;24.706;2022-08-19T08:46:55;5.50;;;4.73;;
3463;SDS011;3551;41.578;24.706;2022-08-19T08:49:29;6.10;;;4.33;;
3463;SDS011;3551;41.578;24.706;2022-08-19T08:52:04;5.07;;;4.33;;
3463;SDS011;3551;41.578;24.706;2022-08-19T08:54:34;5.90;;;4.60;;
3463;SDS011;3551;41.578;24.706;2022-08-19T08:57:07;5.10;;;4.60;;
3463;SDS011;3551;41.578;24.706;2022-08-19T08:59:39;11.07;;;5.00;;
3463;SDS011;3551;41.578;24.706;2022-08-19T09:02:09;5.30;;;4.73;;
3463;SDS011;3551;41.578;24.706;2022-08-19T09:04:36;11.43;;;4.70;;
3463;SDS011;3551;41.578;24.706;2022-08-19T09:07:15;6.70;;;5.40;;
3463;SDS011;3551;41.578;24.706;2022-08-19T09:09:52;6.00;;;4.43;;
3463;SDS011;3551;41.578;24.706;2022-08-19T09:12:31;6.20;;;4.90;;
3463;SDS011;3551;41.578;24.706;2022-08-19T09:15:13;5.07;;;4.57;;
3463;SDS011;3551;41.578;24.706;2022-08-19T09:17:43;5.53;;;4.80;;
3463;SDS011;3551;41.578;24.706;2022-08-19T09:20:14;5.07;;;4.57;;
3463;SDS011;3551;41.578;24.706;2022-08-19T09:22:44;4.83;;;4.30;;
3463;SDS011;3551;41.578;24.706;2022-08-19T09:25:15;6.87;;;4.83;;
3463;SDS011;3551;41.578;24.706;2022-08-19T09:27:45;5.17;;;4.67;;
3463;SDS011;3551;41.578;24.706;2022-08-19T09:30:16;6.70;;;5.37;;
3463;SDS011;3551;41.578;24.706;2022-08-19T09:32:44;13.23;;;5.30;;
3463;SDS011;3551;41.578;24.706;2022-08-19T09:35:14;8.13;;;4.60;;
3463;SDS011;3551;41.578;24.706;2022-08-19T09:37:42;6.27;;;4.67;;
3463;SDS011;3551;41.578;24.706;2022-08-19T09:40:10;5.00;;;4.20;;
3463;SDS011;3551;41.578;24.706;2022-08-19T09:42:37;8.50;;;5.10;;
3463;SDS011;3551;41.578;24.706;2022-08-19T09:45:06;4.80;;;4.30;;
3463;SDS011;3551;41.578;24.706;2022-08-19T09:47:34;5.03;;;3.97;;
3463;SDS011;3551;41.578;24.706;2022-08-19T09:50:03;12.80;;;5.53;;
3463;SDS011;3551;41.578;24.706;2022-08-19T09:52:32;7.47;;;4.70;;
3463;SDS011;3551;41.578;24.706;2022-08-19T09:55:01;5.23;;;4.63;;
3463;SDS011;3551;41.578;24.706;2022-08-19T09:57:29;5.63;;;5.13;;
3463;SDS011;3551;41.578;24.706;2022-08-19T09:59:57;5.97;;;5.20;;
3463;SDS011;3551;41.578;24.706;2022-08-19T10:02:26;11.43;;;5.13;;
3463;SDS011;3551;41.578;24.706;2022-08-19T10:04:53;7.63;;;5.10;;
3463;SDS011;3551;41.578;24.706;2022-08-19T10:07:37;7.80;;;4.90;;
3463;SDS011;3551;41.578;24.706;2022-08-19T10:10:05;5.90;;;5.30;;
3463;SDS011;3551;41.578;24.706;2022-08-19T10:12:34;5.40;;;4.30;;
3463;SDS011;3551;41.578;24.706;2022-08-19T10:15:02;8.70;;;5.70;;
3463;SDS011;3551;41.578;24.706;2022-08-19T10:17:31;5.33;;;4.70;;
3463;SDS011;3551;41.578;24.706;2022-08-19T10:20:00;6.03;;;4.83;;
3463;SDS011;3551;41.578;24.706;2022-08-19T10:22:29;10.07;;;5.70;;
3463;SDS011;3551;41.578;24.706;2022-08-19T10:24:56;5.07;;;4.57;;
3463;SDS011;3551;41.578;24.706;2022-08-19T10:27:23;7.17;;;5.23;;
3463;SDS011;3551;41.578;24.706;2022-08-19T10:29:50;8.30;;;4.67;;
3463;SDS011;3551;41.578;24.706;2022-08-19T10:32:17;6.30;;;4.80;;
3463;SDS011;3551;41.578;24.706;2022-08-19T10:34:46;7.43;;;4.23;;
3463;SDS011;3551;41.578;24.706;2022-08-19T10:37:14;6.50;;;4.83;;
3463;SDS011;3551;41.578;24.706;2022-08-19T10:39:45;6.63;;;5.17;;
3463;SDS011;3551;41.578;24.706;2022-08-19T10:42:13;5.60;;;4.77;;
3463;SDS011;3551;41.578;24.706;2022-08-19T10:44:42;6.10;;;4.63;;
3463;SDS011;3551;41.578;24.706;2022-08-19T10:47:10;8.63;;;4.60;;
3463;SDS011;3551;41.578;24.706;2022-08-19T10:49:37;5.27;;;4.67;;
3463;SDS011;3551;41.578;24.706;2022-08-19T10:52:25;6.60;;;5.17;;
3463;SDS011;3551;41.578;24.706;2022-08-19T10:55:01;8.97;;;4.80;;
3463;SDS011;3551;41.578;24.706;2022-08-19T10:57:48;6.90;;;5.20;;
3463;SDS011;3551;41.578;24.706;2022-08-19T11:00:16;7.50;;;5.83;;
3463;SDS011;3551;41.578;24.706;2022-08-19T11:02:43;8.87;;;7.97;;
3463;SDS011;3551;41.578;24.706;2022-08-19T11:05:11;7.20;;;5.80;;
3463;SDS011;3551;41.578;24.706;2022-08-19T11:07:41;5.50;;;5.00;;
3463;SDS011;3551;41.578;24.706;2022-08-19T11:10:10;6.30;;;5.53;;
3463;SDS011;3551;41.578;24.706;2022-08-19T11:12:39;6.20;;;5.60;;
3463;SDS011;3551;41.578;24.706;2022-08-19T11:15:07;11.00;;;5.40;;
3463;SDS011;3551;41.578;24.706;2022-08-19T11:17:36;6.33;;;5.67;;
3463;SDS011;3551;41.578;24.706;2022-08-19T11:20:07;7.87;;;6.20;;
3463;SDS011;3551;41.578;24.706;2022-08-19T11:22:35;9.37;;;6.23;;
3463;SDS011;3551;41.578;24.706;2022-08-19T11:25:03;7.67;;;6.30;;
3463;SDS011;3551;41.578;24.706;2022-08-19T11:27:31;6.57;;;5.90;;
3463;SDS011;3551;41.578;24.706;2022-08-19T11:29:58;8.37;;;6.20;;
3463;SDS011;3551;41.578;24.706;2022-08-19T11:32:26;7.23;;;5.57;;
3463;SDS011;3551;41.578;24.706;2022-08-19T11:34:53;8.00;;;6.50;;
3463;SDS011;3551;41.578;24.706;2022-08-19T11:37:20;8.80;;;6.23;;
3463;SDS011;3551;41.578;24.706;2022-08-19T11:39:47;6.83;;;5.90;;
3463;SDS011;3551;41.578;24.706;2022-08-19T11:42:15;8.57;;;7.20;;
3463;SDS011;3551;41.578;24.706;2022-08-19T11:45:01;7.10;;;5.77;;
3463;SDS011;3551;41.578;24.706;2022-08-19T11:47:29;8.53;;;6.80;;
3463;SDS011;3551;41.578;24.706;2022-08-19T11:49:56;7.53;;;6.03;;
3463;SDS011;3551;41.578;24.706;2022-08-19T11:52:23;7.33;;;6.10;;
3463;SDS011;3551;41.578;24.706;2022-08-19T11:54:50;8.67;;;5.97;;
3463;SDS011;3551;41.578;24.706;2022-08-19T11:57:18;10.40;;;6.27;;
3463;SDS011;3551;41.578;24.706;2022-08-19T11:59:49;10.77;;;6.30;;
3463;SDS011;3551;41.578;24.706;2022-08-19T12:02:17;7.50;;;5.80;;
3463;SDS011;3551;41.578;24.706;2022-08-19T12:04:44;7.07;;;6.00;;
3463;SDS011;3551;41.578;24.706;2022-08-19T12:07:11;7.37;;;6.57;;
3463;SDS011;3551;41.578;24.706;2022-08-19T12:09:38;7.50;;;6.07;;
3463;SDS011;3551;41.578;24.706;2022-08-19T12:12:05;8.40;;;6.40;;
3463;SDS011;3551;41.578;24.706;2022-08-19T12:14:35;9.57;;;6.40;;
3463;SDS011;3551;41.578;24.706;2022-08-19T12:17:02;11.27;;;6.90;;
3463;SDS011;3551;41.578;24.706;2022-08-19T12:19:31;8.60;;;6.30;;
3463;SDS011;3551;41.578;24.706;2022-08-19T12:21:59;10.87;;;6.17;;
3463;SDS011;3551;41.578;24.706;2022-08-19T12:24:29;10.60;;;6.83;;
3463;SDS011;3551;41.578;24.706;2022-08-19T12:26:57;9.10;;;6.47;;
3463;SDS011;3551;41.578;24.706;2022-08-19T12:29:26;8.13;;;6.50;;
3463;SDS011;3551;41.578;24.706;2022-08-19T12:31:56;7.90;;;5.97;;
3463;SDS011;3551;41.578;24.706;2022-08-19T12:34:26;7.07;;;6.37;;
3463;SDS011;3551;41.578;24.706;2022-08-19T12:36:56;6.60;;;5.90;;
3463;SDS011;3551;41.578;24.706;2022-08-19T12:39:23;10.60;;;6.50;;
3463;SDS011;3551;41.578;24.706;2022-08-19T12:45:00;10.80;;;6.23;;
3463;SDS011;3551;41.578;24.706;2022-08-19T12:47:32;10.70;;;6.30;;
3463;SDS011;3551;41.578;24.706;2022-08-19T12:50:01;8.27;;;5.80;;
3463;SDS011;3551;41.578;24.706;2022-08-19T12:52:38;6.50;;;5.90;;
3463;SDS011;3551;41.578;24.706;2022-08-19T12:55:07;6.83;;;5.80;;
3463;SDS011;3551;41.578;24.706;2022-08-19T12:57:38;9.43;;;6.27;;
3463;SDS011;3551;41.578;24.706;2022-08-19T13:00:08;7.07;;;5.90;;
3463;SDS011;3551;41.578;24.706;2022-08-19T13:02:42;7.53;;;5.80;;
3463;SDS011;3551;41.578;24.706;2022-08-19T13:05:13;7.27;;;6.10;;
3463;SDS011;3551;41.578;24.706;2022-08-19T13:10:11;7.43;;;6.63;;
3463;SDS011;3551;41.578;24.706;2022-08-19T13:12:52;7.43;;;5.87;;
3463;SDS011;3551;41.578;24.706;2022-08-19T13:15:24;6.27;;;5.50;;
3463;SDS011;3551;41.578;24.706;2022-08-19T13:17:55;10.13;;;6.10;;
3463;SDS011;3551;41.578;24.706;2022-08-19T13:20:23;10.47;;;6.27;;
3463;SDS011;3551;41.578;24.706;2022-08-19T13:22:50;9.00;;;5.77;;
3463;SDS011;3551;41.578;24.706;2022-08-19T13:25:18;10.97;;;5.43;;
3463;SDS011;3551;41.578;24.706;2022-08-19T13:27:46;7.90;;;5.80;;
3463;SDS011;3551;41.578;24.706;2022-08-19T13:30:16;8.70;;;5.80;;
3463;SDS011;3551;41.578;24.706;2022-08-19T13:33:03;7.90;;;5.83;;
3463;SDS011;3551;41.578;24.706;2022-08-19T13:35:40;9.20;;;5.33;;
3463;SDS011;3551;41.578;24.706;2022-08-19T13:38:10;16.60;;;6.10;;
3463;SDS011;3551;41.578;24.706;2022-08-19T13:40:38;8.70;;;5.50;;
3463;SDS011;3551;41.578;24.706;2022-08-19T13:43:07;8.97;;;5.63;;
3463;SDS011;3551;41.578;24.706;2022-08-19T13:45:35;9.90;;;5.50;;
3463;SDS011;3551;41.578;24.706;2022-08-19T13:48:05;6.37;;;5.70;;
3463;SDS011;3551;41.578;24.706;2022-08-19T13:50:38;9.47;;;5.30;;
3463;SDS011;3551;41.578;24.706;2022-08-19T13:53:07;10.13;;;6.13;;
3463;SDS011;3551;41.578;24.706;2022-08-19T13:55:39;9.00;;;6.33;;
3463;SDS011;3551;41.578;24.706;2022-08-19T13:58:08;10.13;;;5.37;;
3463;SDS011;3551;41.578;24.706;2022-08-19T14:00:37;6.13;;;5.40;;
3463;SDS011;3551;41.578;24.706;2022-08-19T14:03:10;10.83;;;6.60;;
3463;SDS011;3551;41.578;24.706;2022-08-19T14:05:39;6.37;;;5.67;;
3463;SDS011;3551;41.578;24.706;2022-08-19T14:08:06;9.20;;;6.10;;
3463;SDS011;3551;41.578;24.706;2022-08-19T14:10:34;7.60;;;6.17;;
3463;SDS011;3551;41.578;24.706;2022-08-19T14:13:02;11.60;;;5.73;;
3463;SDS011;3551;41.578;24.706;2022-08-19T14:15:36;7.20;;;5.90;;
3463;SDS011;3551;41.578;24.706;2022-08-19T14:18:05;7.23;;;6.07;;
3463;SDS011;3551;41.578;24.706;2022-08-19T14:20:44;10.60;;;6.10;;
3463;SDS011;3551;41.578;24.706;2022-08-19T14:23:13;10.00;;;5.80;;
3463;SDS011;3551;41.578;24.706;2022-08-19T14:25:40;8.73;;;5.87;;
3463;SDS011;3551;41.578;24.706;2022-08-19T14:28:07;6.00;;;5.33;;
3463;SDS011;3551;41.578;24.706;2022-08-19T14:30:35;7.53;;;6.03;;
3463;SDS011;3551;41.578;24.706;2022-08-19T14:33:03;6.10;;;5.50;;
3463;SDS011;3551;41.578;24.706;2022-08-19T14:35:32;9.47;;;6.33;;
3463;SDS011;3551;41.578;24.706;2022-08-19T14:38:03;6.60;;;5.90;;
3463;SDS011;3551;41.578;24.706;2022-08-19T14:40:31;16.07;;;6.03;;
3463;SDS011;3551;41.578;24.706;2022-08-19T14:43:20;7.20;;;6.10;;
3463;SDS011;3551;41.578;24.706;2022-08-19T14:45:50;7.93;;;6.30;;
3463;SDS011;3551;41.578;24.706;2022-08-19T14:48:17;6.40;;;5.50;;
3463;SDS011;3551;41.578;24.706;2022-08-19T14:50:47;8.57;;;5.90;;
3463;SDS011;3551;41.578;24.706;2022-08-19T14:53:20;6.10;;;5.37;;
3463;SDS011;3551;41.578;24.706;2022-08-19T14:56:06;9.70;;;6.40;;
3463;SDS011;3551;41.578;24.706;2022-08-19T14:58:41;13.20;;;5.50;;
3463;SDS011;3551;41.578;24.706;2022-08-19T15:01:10;6.20;;;5.50;;
3463;SDS011;3551;41.578;24.706;2022-08-19T15:03:39;9.40;;;6.20;;
3463;SDS011;3551;41.578;24.706;2022-08-19T15:06:08;7.77;;;5.70;;
3463;SDS011;3551;41.578;24.706;2022-08-19T15:08:37;8.00;;;6.40;;
3463;SDS011;3551;41.578;24.706;2022-08-19T15:11:07;18.03;;;11.93;;
3463;SDS011;3551;41.578;24.706;2022-08-19T15:13:36;10.23;;;7.60;;